Time;durP1;ratioP1;P1;durP2;ratioP2;P2;SDS_P1;SDS_P2;PMS_P1;PMS_P2;Temp;Humidity;BMP_temperature;BMP_pressure;BME280_temperature;BME280_humidity;BME280_pressure;Samples;Min_cycle;Max_cycle;Signal;HPM_P1;HPM_P2
2021/09/25 00:00:29;;;;;;;5.63;5.03;;;17.20;99.90;;;;;;5013434;28;20204;-70
2021/09/25 00:02:56;;;;;;;8.27;6.20;;;17.20;99.90;;;;;;5013652;28;20416;-70
2021/09/25 00:05:25;;;;;;;6.13;5.57;;;17.20;99.90;;;;;;5013767;28;20931;-69
2021/09/25 00:07:50;;;;;;;7.80;5.50;;;17.20;99.90;;;;;;5013590;28;20403;-69
2021/09/25 00:10:16;;;;;;;6.13;5.13;;;17.20;99.90;;;;;;5013495;28;20913;-70
2021/09/25 00:12:42;;;;;;;5.90;4.73;;;17.20;99.90;;;;;;4995907;28;20525;-70
2021/09/25 00:15:08;;;;;;;6.57;5.10;;;17.20;99.90;;;;;;5013128;28;20197;-70
2021/09/25 00:17:33;;;;;;;5.70;5.00;;;17.20;99.90;;;;;;5013382;28;20346;-69
2021/09/25 00:19:59;;;;;;;6.30;4.93;;;17.20;99.90;;;;;;5013378;28;20451;-70
2021/09/25 00:22:25;;;;;;;5.47;4.93;;;17.20;99.90;;;;;;5013315;28;20182;-70
2021/09/25 00:24:50;;;;;;;6.07;4.43;;;17.20;99.90;;;;;;5013192;28;20745;-70
2021/09/25 00:27:16;;;;;;;7.13;5.90;;;17.20;99.90;;;;;;5013216;28;20238;-69
2021/09/25 00:29:44;;;;;;;5.90;4.87;;;17.30;99.90;;;;;;5013336;28;20168;-70
2021/09/25 00:32:09;;;;;;;7.10;6.00;;;17.30;99.90;;;;;;5013164;28;20164;-70
2021/09/25 00:34:35;;;;;;;5.80;4.33;;;17.20;99.90;;;;;;4995673;28;20530;-70
2021/09/25 00:37:00;;;;;;;6.80;5.37;;;17.20;99.90;;;;;;5013243;28;20658;-70
2021/09/25 00:39:26;;;;;;;6.60;5.03;;;17.30;99.90;;;;;;5012975;28;20567;-69
2021/09/25 00:41:51;;;;;;;5.37;4.27;;;17.30;99.90;;;;;;4995514;28;20160;-69
2021/09/25 00:44:17;;;;;;;6.50;5.67;;;17.30;99.90;;;;;;5012912;28;20181;-69
2021/09/25 00:46:42;;;;;;;6.53;4.53;;;17.30;99.90;;;;;;5012621;28;20163;-70
2021/09/25 00:49:08;;;;;;;7.00;4.97;;;17.30;99.90;;;;;;5012831;28;20179;-70
2021/09/25 00:51:34;;;;;;;7.27;5.23;;;17.30;99.90;;;;;;5012651;28;20258;-70
2021/09/25 00:53:59;;;;;;;5.10;4.30;;;17.30;99.90;;;;;;5012797;28;20258;-70
2021/09/25 00:56:26;;;;;;;5.53;4.50;;;17.30;99.90;;;;;;5012574;28;20282;-68
2021/09/25 00:58:55;;;;;;;11.90;5.90;;;17.30;99.90;;;;;;5012521;28;20176;-69
2021/09/25 01:01:20;;;;;;;6.63;5.53;;;17.30;99.90;;;;;;5012917;28;20410;-69
2021/09/25 01:03:46;;;;;;;6.10;4.77;;;17.30;99.90;;;;;;5012668;28;20484;-69
2021/09/25 01:06:11;;;;;;;5.90;5.10;;;17.30;99.90;;;;;;5012680;28;20189;-69
2021/09/25 01:08:37;;;;;;;5.63;4.83;;;17.30;99.90;;;;;;5012804;28;20230;-69
2021/09/25 01:11:02;;;;;;;7.40;6.67;;;17.30;99.90;;;;;;5012339;28;20180;-69
2021/09/25 01:13:30;;;;;;;8.40;6.30;;;17.30;99.90;;;;;;5012541;28;20182;-69
2021/09/25 01:15:55;;;;;;;5.70;4.60;;;17.30;99.90;;;;;;5012322;28;20191;-69
2021/09/25 01:18:21;;;;;;;6.10;5.10;;;17.30;99.90;;;;;;5012090;28;20530;-69
2021/09/25 01:20:46;;;;;;;6.40;5.30;;;17.30;99.90;;;;;;5012194;28;20771;-69
2021/09/25 01:23:12;;;;;;;7.67;5.30;;;17.30;99.90;;;;;;5011978;28;20163;-69
2021/09/25 01:25:38;;;;;;;6.10;4.80;;;17.30;99.90;;;;;;5010710;28;20683;-69
2021/09/25 01:28:04;;;;;;;5.77;4.87;;;17.30;99.90;;;;;;5012265;28;20207;-69
2021/09/25 01:30:30;;;;;;;7.07;5.33;;;17.30;99.90;;;;;;5012351;28;20533;-69
2021/09/25 01:32:55;;;;;;;8.20;5.63;;;17.20;99.90;;;;;;5013212;28;20417;-70
2021/09/25 01:35:22;;;;;;;8.30;6.83;;;17.20;99.90;;;;;;5012104;28;20281;-71
2021/09/25 01:37:50;;;;;;;5.70;5.13;;;17.30;99.90;;;;;;5014008;28;20167;-71
2021/09/25 01:40:17;;;;;;;5.03;4.53;;;17.30;99.90;;;;;;5011243;28;20489;-71
2021/09/25 01:42:42;;;;;;;7.80;5.50;;;17.30;99.90;;;;;;5013366;28;20425;-71
2021/09/25 01:45:09;;;;;;;6.30;4.70;;;17.20;99.90;;;;;;5012466;28;20431;-71
2021/09/25 01:47:34;;;;;;;7.13;5.37;;;17.30;99.90;;;;;;5012797;28;20178;-71
2021/09/25 01:50:03;;;;;;;5.20;4.50;;;17.20;99.90;;;;;;5012916;28;20498;-71
2021/09/25 01:52:32;;;;;;;5.37;4.87;;;17.20;99.90;;;;;;5013687;28;20180;-69
2021/09/25 01:54:57;;;;;;;5.90;5.30;;;17.20;99.90;;;;;;5013906;28;21024;-71
2021/09/25 01:57:23;;;;;;;8.40;5.20;;;17.20;99.90;;;;;;5014380;28;20412;-70
2021/09/25 01:59:48;;;;;;;7.10;5.40;;;17.20;99.90;;;;;;5014412;28;20284;-71
2021/09/25 02:02:15;;;;;;;6.50;5.90;;;17.20;99.90;;;;;;5014571;28;20366;-70
2021/09/25 02:04:47;;;;;;;6.60;5.80;;;17.20;99.90;;;;;;5016382;28;20193;-70
2021/09/25 02:07:17;;;;;;;8.80;5.40;;;17.30;99.90;;;;;;5018547;28;20975;-71
2021/09/25 02:09:43;;;;;;;7.00;4.87;;;17.20;99.90;;;;;;5018578;28;20413;-71
2021/09/25 02:12:09;;;;;;;7.97;5.47;;;17.30;99.90;;;;;;5018039;28;20457;-71
2021/09/25 02:14:35;;;;;;;4.80;4.30;;;17.20;99.90;;;;;;5017966;28;20925;-70
2021/09/25 02:17:01;;;;;;;7.03;5.90;;;17.20;99.90;;;;;;5017903;28;20595;-71
2021/09/25 02:19:26;;;;;;;6.90;4.90;;;17.30;99.90;;;;;;5017332;28;20454;-71
2021/09/25 02:21:52;;;;;;;7.80;5.57;;;17.30;99.90;;;;;;5016961;28;20226;-71
2021/09/25 02:24:17;;;;;;;5.17;4.67;;;17.30;99.90;;;;;;5016592;28;20168;-71
2021/09/25 02:26:43;;;;;;;8.17;5.73;;;17.30;99.90;;;;;;5017928;28;20184;-71
2021/09/25 02:29:09;;;;;;;6.00;5.00;;;17.30;99.90;;;;;;5017669;28;20181;-71
2021/09/25 02:31:35;;;;;;;6.57;5.70;;;17.30;99.90;;;;;;5018307;28;20273;-71
2021/09/25 02:34:01;;;;;;;7.77;6.20;;;17.20;99.90;;;;;;5017613;28;20509;-71
2021/09/25 02:36:26;;;;;;;5.33;4.83;;;17.20;99.90;;;;;;5017455;28;20446;-71
2021/09/25 02:38:52;;;;;;;5.47;4.90;;;17.20;99.90;;;;;;5017251;28;20175;-69
2021/09/25 02:41:17;;;;;;;8.43;6.07;;;17.20;99.90;;;;;;5016683;28;20285;-73
2021/09/25 02:43:43;;;;;;;6.53;5.60;;;17.30;99.90;;;;;;5016337;28;20191;-71
2021/09/25 02:46:09;;;;;;;5.07;4.60;;;17.20;99.90;;;;;;5016318;28;20281;-71
2021/09/25 02:48:34;;;;;;;6.73;5.50;;;17.20;99.90;;;;;;5017819;28;20168;-70
2021/09/25 02:51:00;;;;;;;6.40;5.50;;;17.20;99.90;;;;;;5017744;28;20190;-71
2021/09/25 02:53:26;;;;;;;5.50;4.80;;;17.20;99.90;;;;;;5017532;28;20371;-71
2021/09/25 02:55:52;;;;;;;5.40;4.67;;;17.20;99.90;;;;;;5017720;28;20428;-71
2021/09/25 02:58:17;;;;;;;6.90;5.30;;;17.20;99.90;;;;;;5017399;28;20631;-71
2021/09/25 03:00:43;;;;;;;5.53;4.33;;;17.20;99.90;;;;;;5017077;28;20550;-71
2021/09/25 03:03:09;;;;;;;6.70;5.20;;;17.20;99.90;;;;;;5016859;28;20534;-70
2021/09/25 03:05:34;;;;;;;5.53;4.93;;;17.10;99.90;;;;;;5016198;28;20431;-70
2021/09/25 03:08:00;;;;;;;5.83;4.63;;;17.10;99.90;;;;;;5015945;28;20183;-72
2021/09/25 03:10:25;;;;;;;5.43;4.60;;;17.10;99.90;;;;;;5016040;28;20169;-71
2021/09/25 03:12:51;;;;;;;5.60;5.10;;;17.10;99.90;;;;;;5015483;28;20202;-71
2021/09/25 03:15:16;;;;;;;4.80;4.40;;;17.10;99.90;;;;;;5016003;28;20186;-71
2021/09/25 03:17:42;;;;;;;5.70;4.70;;;17.10;99.90;;;;;;5015752;28;20193;-71
2021/09/25 03:20:08;;;;;;;5.67;4.67;;;17.10;99.90;;;;;;5015882;28;20203;-71
2021/09/25 03:22:34;;;;;;;7.17;4.50;;;17.10;99.90;;;;;;5016581;28;20259;-71
2021/09/25 03:25:03;;;;;;;7.00;5.47;;;17.10;99.90;;;;;;5015527;28;20423;-71
2021/09/25 03:27:29;;;;;;;6.40;5.13;;;17.10;99.90;;;;;;5015384;28;20445;-71
2021/09/25 03:29:54;;;;;;;6.97;5.70;;;17.10;99.90;;;;;;5017128;28;20456;-71
2021/09/25 03:32:19;;;;;;;6.00;5.37;;;17.10;99.90;;;;;;5016376;28;20178;-71
2021/09/25 03:34:45;;;;;;;5.87;5.00;;;17.10;99.90;;;;;;5016677;28;20288;-71
2021/09/25 03:37:10;;;;;;;5.53;5.00;;;17.10;99.90;;;;;;5016576;28;20173;-71
2021/09/25 03:39:36;;;;;;;6.93;4.47;;;17.20;99.90;;;;;;5016588;28;20628;-71
2021/09/25 03:42:02;;;;;;;6.10;4.40;;;17.20;99.90;;;;;;5016414;28;20181;-70
2021/09/25 03:44:28;;;;;;;6.53;5.73;;;17.20;99.90;;;;;;5015754;28;20166;-70
2021/09/25 03:46:55;;;;;;;8.43;4.77;;;17.20;99.90;;;;;;5016092;28;20460;-71
2021/09/25 03:49:20;;;;;;;4.40;4.00;;;17.20;99.90;;;;;;5016134;28;20167;-71
2021/09/25 03:51:46;;;;;;;5.40;4.67;;;17.20;99.90;;;;;;5015558;28;20413;-70
2021/09/25 03:54:11;;;;;;;5.40;4.60;;;17.20;99.90;;;;;;5015456;28;20175;-71
2021/09/25 03:56:37;;;;;;;5.30;3.93;;;17.20;99.90;;;;;;5015833;28;20265;-70
2021/09/25 03:59:02;;;;;;;4.60;4.20;;;17.20;99.90;;;;;;5016023;28;20182;-70
2021/09/25 04:01:28;;;;;;;5.70;5.03;;;17.20;99.90;;;;;;5015730;28;20161;-71
2021/09/25 04:03:55;;;;;;;4.33;3.80;;;17.20;99.90;;;;;;5015958;28;20180;-73
2021/09/25 04:06:23;;;;;;;5.03;4.60;;;17.20;99.90;;;;;;5015906;28;20207;-71
2021/09/25 04:08:48;;;;;;;4.60;4.03;;;17.10;99.90;;;;;;5016170;28;20393;-69
2021/09/25 04:11:14;;;;;;;5.70;5.20;;;17.10;99.90;;;;;;5016285;28;20413;-71
2021/09/25 04:13:39;;;;;;;7.70;6.13;;;17.00;99.90;;;;;;5016503;28;20641;-71
2021/09/25 04:16:05;;;;;;;7.57;5.90;;;17.00;99.90;;;;;;5015631;28;20552;-70
2021/09/25 04:18:30;;;;;;;6.40;4.77;;;16.90;99.90;;;;;;4998629;28;20182;-70
2021/09/25 04:20:56;;;;;;;8.63;6.83;;;16.90;99.90;;;;;;5015939;28;20216;-71
2021/09/25 04:23:21;;;;;;;8.43;6.97;;;16.70;99.90;;;;;;5016169;28;20201;-71
2021/09/25 04:25:46;;;;;;;7.53;5.63;;;16.70;99.90;;;;;;5015591;28;20199;-68
2021/09/25 04:28:12;;;;;;;6.17;5.40;;;16.60;99.90;;;;;;5015432;28;20257;-72
2021/09/25 04:30:39;;;;;;;7.40;5.70;;;16.40;99.90;;;;;;5015591;28;20178;-69
2021/09/25 04:33:08;;;;;;;11.73;7.20;;;16.40;99.90;;;;;;5016449;28;20175;-69
2021/09/25 04:35:35;;;;;;;8.53;7.13;;;16.30;99.90;;;;;;4998464;28;20433;-70
2021/09/25 04:38:00;;;;;;;6.37;5.77;;;16.30;99.90;;;;;;5015824;28;20452;-70
2021/09/25 04:40:29;;;;;;;8.57;6.23;;;16.30;99.90;;;;;;5016580;28;20549;-70
2021/09/25 04:42:55;;;;;;;5.80;5.20;;;16.40;99.90;;;;;;5015558;28;20911;-70
2021/09/25 04:45:20;;;;;;;8.13;6.47;;;16.30;99.90;;;;;;5015952;28;20438;-70
2021/09/25 04:47:46;;;;;;;8.23;6.60;;;16.30;99.90;;;;;;5016000;28;20168;-70
2021/09/25 04:50:14;;;;;;;8.70;7.60;;;16.40;99.90;;;;;;5016008;28;20635;-70
2021/09/25 04:52:40;;;;;;;7.60;6.30;;;16.30;99.90;;;;;;5016365;28;20710;-69
2021/09/25 04:55:06;;;;;;;6.40;5.80;;;16.30;99.90;;;;;;5015684;28;20466;-69
2021/09/25 04:57:32;;;;;;;7.07;6.43;;;16.20;99.90;;;;;;5015737;28;20415;-70
2021/09/25 04:59:58;;;;;;;7.07;5.40;;;16.20;99.90;;;;;;5016338;28;20443;-68
2021/09/25 05:02:23;;;;;;;7.23;5.83;;;16.20;99.90;;;;;;5016050;28;20411;-70
2021/09/25 05:04:49;;;;;;;7.83;6.60;;;16.10;99.90;;;;;;5015987;28;20198;-70
2021/09/25 05:07:15;;;;;;;12.03;6.43;;;16.10;99.90;;;;;;5015465;28;20241;-70
2021/09/25 05:09:40;;;;;;;7.33;5.80;;;16.10;99.90;;;;;;5014215;28;20186;-69
2021/09/25 05:12:06;;;;;;;7.33;5.10;;;16.00;99.90;;;;;;5015160;28;20186;-70
2021/09/25 05:14:33;;;;;;;7.27;5.90;;;16.00;99.90;;;;;;5015111;28;20189;-70
2021/09/25 05:16:59;;;;;;;5.50;5.00;;;16.00;99.90;;;;;;5015923;28;20201;-70
2021/09/25 05:19:25;;;;;;;9.00;6.17;;;16.00;99.90;;;;;;5015640;28;20451;-70
2021/09/25 05:21:50;;;;;;;7.03;5.07;;;16.00;99.90;;;;;;5015437;28;20181;-69
2021/09/25 05:24:16;;;;;;;7.97;5.87;;;16.00;99.90;;;;;;5015232;28;20171;-69
2021/09/25 05:26:41;;;;;;;7.43;5.67;;;16.00;99.90;;;;;;5015297;28;20179;-70
2021/09/25 05:29:08;;;;;;;6.57;5.63;;;16.00;99.90;;;;;;5015382;28;20538;-69
2021/09/25 05:31:33;;;;;;;7.00;5.03;;;16.10;99.90;;;;;;5015388;28;20544;-70
2021/09/25 05:33:59;;;;;;;6.43;5.70;;;16.10;99.90;;;;;;5014949;28;20415;-70
2021/09/25 05:36:25;;;;;;;5.63;4.77;;;16.10;99.90;;;;;;5014249;28;20565;-70
2021/09/25 05:38:51;;;;;;;7.50;4.87;;;16.20;99.90;;;;;;5014045;28;20181;-70
2021/09/25 05:41:16;;;;;;;7.23;5.67;;;16.30;99.90;;;;;;5014401;28;20481;-71
2021/09/25 05:43:42;;;;;;;8.83;5.37;;;16.30;99.90;;;;;;5013926;28;20186;-70
2021/09/25 05:46:08;;;;;;;6.23;5.03;;;16.30;99.90;;;;;;5014347;28;20245;-70
2021/09/25 05:48:34;;;;;;;5.77;5.20;;;16.30;99.90;;;;;;5014202;28;20184;-70
2021/09/25 05:51:03;;;;;;;8.60;5.80;;;16.40;99.90;;;;;;5013338;28;20187;-71
2021/09/25 05:53:29;;;;;;;6.70;4.70;;;16.40;99.90;;;;;;5013659;28;20401;-70
2021/09/25 05:55:54;;;;;;;6.97;5.47;;;16.40;99.90;;;;;;5013075;28;20465;-71
2021/09/25 05:58:20;;;;;;;5.50;5.00;;;16.50;99.90;;;;;;5014898;28;20189;-70
2021/09/25 06:00:45;;;;;;;6.10;4.83;;;16.60;99.90;;;;;;5014337;28;20206;-70
2021/09/25 06:03:11;;;;;;;5.70;4.63;;;16.50;99.90;;;;;;5014195;28;20164;-72
2021/09/25 06:05:36;;;;;;;5.53;4.40;;;16.60;99.90;;;;;;5014390;28;20195;-70
2021/09/25 06:08:03;;;;;;;8.17;4.70;;;16.70;99.90;;;;;;5014553;28;20171;-69
2021/09/25 06:10:30;;;;;;;5.97;4.40;;;16.90;99.90;;;;;;5014180;28;20179;-70
2021/09/25 06:12:55;;;;;;;5.07;3.93;;;16.90;99.90;;;;;;5014311;28;20429;-70
2021/09/25 06:15:21;;;;;;;5.07;4.43;;;17.00;99.90;;;;;;5013702;28;20927;-71
2021/09/25 06:17:46;;;;;;;5.73;5.03;;;16.90;99.90;;;;;;5013577;28;20192;-71
2021/09/25 06:20:13;;;;;;;5.80;4.30;;;16.90;99.90;;;;;;5013165;28;20268;-70
2021/09/25 06:22:38;;;;;;;6.77;5.07;;;17.00;99.90;;;;;;5013109;28;20211;-70
2021/09/25 06:25:04;;;;;;;4.53;4.13;;;17.20;99.90;;;;;;5013034;28;20446;-71
2021/09/25 06:27:30;;;;;;;4.60;3.90;;;17.20;99.90;;;;;;4996627;28;20176;-71
2021/09/25 06:29:56;;;;;;;8.00;4.70;;;17.30;99.90;;;;;;5014344;28;20406;-71
2021/09/25 06:32:21;;;;;;;5.80;4.27;;;17.30;99.90;;;;;;4995146;28;20183;-71
2021/09/25 06:34:47;;;;;;;5.20;4.70;;;17.30;99.90;;;;;;5012726;28;20207;-71
2021/09/25 06:37:12;;;;;;;4.20;3.70;;;17.20;99.90;;;;;;5012864;28;20697;-71
2021/09/25 06:39:38;;;;;;;4.93;4.27;;;17.20;99.90;;;;;;5013927;28;20483;-71
2021/09/25 06:42:03;;;;;;;4.13;3.57;;;17.20;99.90;;;;;;5013569;28;20234;-71
2021/09/25 06:44:29;;;;;;;6.50;4.70;;;17.20;99.90;;;;;;5013631;28;20172;-70
2021/09/25 06:47:00;;;;;;;5.60;4.73;;;17.10;99.90;;;;;;5013432;28;20599;-72
2021/09/25 06:49:28;;;;;;;5.80;4.60;;;17.10;99.90;;;;;;4995749;28;20651;-70
2021/09/25 06:51:57;;;;;;;5.17;4.00;;;17.10;99.90;;;;;;5016982;28;20415;-71
2021/09/25 06:54:22;;;;;;;5.20;4.70;;;17.20;99.90;;;;;;5016594;28;20534;-71
2021/09/25 06:56:48;;;;;;;4.83;4.40;;;17.40;99.90;;;;;;4999655;28;20423;-71
2021/09/25 06:59:13;;;;;;;4.50;3.60;;;17.50;99.90;;;;;;4999471;28;20216;-70
2021/09/25 07:01:43;;;;;;;4.93;3.80;;;17.50;99.90;;;;;;5016835;28;20188;-72
2021/09/25 07:04:08;;;;;;;4.20;3.80;;;17.50;99.90;;;;;;4981989;28;20203;-71
2021/09/25 07:06:34;;;;;;;5.10;3.80;;;17.60;99.90;;;;;;5016626;28;20428;-71
2021/09/25 07:09:00;;;;;;;5.27;4.03;;;17.60;99.90;;;;;;5016305;28;20172;-71
2021/09/25 07:11:28;;;;;;;6.57;4.00;;;17.60;99.90;;;;;;4998553;28;20407;-71
2021/09/25 07:13:56;;;;;;;4.10;3.70;;;17.60;99.90;;;;;;5016438;28;20257;-71
2021/09/25 07:16:24;;;;;;;7.23;4.90;;;17.70;99.90;;;;;;5016069;28;20956;-71
2021/09/25 07:18:50;;;;;;;6.30;4.57;;;17.70;99.90;;;;;;5015364;28;20464;-71
2021/09/25 07:21:15;;;;;;;6.67;4.67;;;17.70;99.90;;;;;;5015452;28;20526;-71
2021/09/25 07:23:41;;;;;;;5.77;4.30;;;17.60;99.90;;;;;;4998128;28;20170;-71
2021/09/25 07:26:07;;;;;;;4.13;3.73;;;17.70;99.90;;;;;;5015611;28;20667;-71
2021/09/25 07:28:33;;;;;;;5.97;4.30;;;17.90;99.90;;;;;;5015793;28;20614;-72
2021/09/25 07:31:00;;;;;;;7.00;4.60;;;18.10;99.90;;;;;;5014902;28;20168;-72
2021/09/25 07:33:25;;;;;;;4.77;4.10;;;18.50;99.90;;;;;;5014908;28;20475;-71
2021/09/25 07:35:51;;;;;;;5.30;4.80;;;18.70;99.90;;;;;;5014946;28;20443;-71
2021/09/25 07:38:17;;;;;;;4.37;3.80;;;18.50;99.90;;;;;;5015304;28;20263;-72
2021/09/25 07:40:42;;;;;;;4.83;4.37;;;18.40;99.90;;;;;;4997330;28;20220;-70
2021/09/25 07:43:08;;;;;;;5.90;4.17;;;18.40;99.90;;;;;;5014988;28;20226;-72
2021/09/25 07:45:34;;;;;;;4.60;4.00;;;18.60;99.90;;;;;;5015242;28;20189;-72
2021/09/25 07:48:01;;;;;;;4.27;3.83;;;18.70;99.90;;;;;;5014822;28;20228;-72
2021/09/25 07:50:26;;;;;;;4.37;3.67;;;18.80;99.90;;;;;;5014463;28;20416;-71
2021/09/25 07:52:56;;;;;;;4.00;3.60;;;18.50;99.90;;;;;;5014939;28;20434;-72
2021/09/25 07:55:23;;;;;;;4.67;4.03;;;18.40;99.90;;;;;;5015273;28;20211;-71
2021/09/25 07:57:49;;;;;;;4.00;3.70;;;18.50;99.90;;;;;;5015317;28;20798;-71
2021/09/25 08:00:16;;;;;;;4.60;4.10;;;18.70;99.90;;;;;;5014970;28;20461;-72
2021/09/25 08:02:42;;;;;;;4.90;4.33;;;18.80;99.90;;;;;;5014406;28;20216;-71
2021/09/25 08:05:09;;;;;;;4.60;4.13;;;18.70;99.90;;;;;;5014567;28;20469;-71
2021/09/25 08:07:35;;;;;;;3.97;3.63;;;18.70;99.90;;;;;;4997472;28;20409;-72
2021/09/25 08:10:00;;;;;;;4.73;3.83;;;18.90;99.90;;;;;;5014801;28;20430;-72
2021/09/25 08:12:26;;;;;;;4.97;4.50;;;18.40;99.90;;;;;;5014500;28;20179;-72
2021/09/25 08:14:52;;;;;;;7.63;5.53;;;18.40;99.90;;;;;;5014738;28;20207;-72
2021/09/25 08:17:18;;;;;;;5.07;4.57;;;18.40;99.90;;;;;;5014835;28;20263;-71
2021/09/25 08:19:43;;;;;;;4.43;4.03;;;18.40;99.90;;;;;;5014775;28;20235;-72
2021/09/25 08:22:09;;;;;;;4.80;4.40;;;18.30;99.90;;;;;;5014494;28;20181;-72
2021/09/25 08:24:34;;;;;;;5.93;5.43;;;18.60;99.90;;;;;;5014502;28;20199;-72
2021/09/25 08:27:00;;;;;;;4.93;4.43;;;18.60;99.90;;;;;;5014780;28;20174;-71
2021/09/25 08:29:25;;;;;;;5.30;4.37;;;18.50;99.90;;;;;;4997013;28;20236;-72
2021/09/25 08:31:53;;;;;;;4.93;4.53;;;18.70;99.90;;;;;;5013980;28;20172;-72
2021/09/25 08:34:19;;;;;;;6.90;4.37;;;18.60;99.90;;;;;;5013655;28;20170;-71
2021/09/25 08:36:46;;;;;;;4.70;4.30;;;18.60;99.90;;;;;;5014047;28;20420;-71
2021/09/25 08:39:11;;;;;;;6.00;5.20;;;18.50;99.90;;;;;;5013727;28;20212;-71
2021/09/25 08:41:37;;;;;;;5.23;4.70;;;18.50;99.90;;;;;;5013764;28;20415;-71
2021/09/25 08:44:04;;;;;;;5.10;4.60;;;18.50;99.90;;;;;;5013717;28;20438;-70
2021/09/25 08:46:32;;;;;;;7.23;5.17;;;18.40;99.90;;;;;;5013988;28;20673;-71
2021/09/25 08:48:58;;;;;;;5.83;4.37;;;18.40;99.90;;;;;;5013769;28;20413;-71
2021/09/25 08:51:23;;;;;;;5.07;4.57;;;18.60;99.90;;;;;;5013912;28;20980;-71
2021/09/25 08:53:49;;;;;;;7.43;5.50;;;18.40;99.90;;;;;;5014046;28;20176;-70
2021/09/25 08:56:14;;;;;;;5.63;5.07;;;18.20;99.90;;;;;;5013780;28;20196;-71
2021/09/25 08:58:40;;;;;;;5.80;5.23;;;18.30;99.90;;;;;;5013809;28;20174;-70
2021/09/25 09:01:06;;;;;;;7.07;5.30;;;18.50;99.90;;;;;;5013350;28;20201;-71
2021/09/25 09:03:37;;;;;;;5.30;4.80;;;18.70;99.90;;;;;;5012975;28;20302;-73
2021/09/25 09:06:28;;;;;;;5.30;4.70;;;18.70;99.90;;;;;;5013550;28;20427;-70
2021/09/25 09:08:56;;;;;;;7.20;6.50;;;18.60;99.90;;;;;;5013536;28;20402;-71
2021/09/25 09:11:23;;;;;;;6.67;5.50;;;18.60;99.90;;;;;;5013664;28;20462;-71
2021/09/25 09:13:52;;;;;;;5.63;5.13;;;18.40;99.90;;;;;;5013019;28;20994;-70
2021/09/25 09:16:18;;;;;;;6.37;5.10;;;18.40;99.90;;;;;;5013141;28;20425;-71
2021/09/25 09:18:46;;;;;;;6.53;5.63;;;18.70;99.90;;;;;;5013105;28;20512;-71
2021/09/25 09:21:12;;;;;;;5.90;5.40;;;18.70;99.90;;;;;;5013203;28;20557;-70
2021/09/25 09:23:41;;;;;;;4.90;4.40;;;18.80;99.90;;;;;;5012825;28;20895;-69
2021/09/25 09:26:08;;;;;;;5.30;4.73;;;18.70;99.90;;;;;;5012687;28;20193;-70
2021/09/25 09:28:36;;;;;;;6.20;5.60;;;18.80;99.90;;;;;;5012597;28;20409;-71
2021/09/25 09:31:04;;;;;;;5.73;5.13;;;18.70;99.90;;;;;;5012944;28;20410;-69
2021/09/25 09:33:37;;;;;;;5.23;4.73;;;18.70;99.90;;;;;;5012472;28;20412;-70
2021/09/25 09:36:14;;;;;;;5.97;5.17;;;18.60;99.90;;;;;;5012883;28;20433;-70
2021/09/25 09:38:53;;;;;;;5.70;5.20;;;18.50;99.90;;;;;;5012706;28;20941;-70
2021/09/25 09:41:21;;;;;;;5.47;4.97;;;18.50;99.90;;;;;;5012636;28;20457;-70
2021/09/25 09:43:47;;;;;;;7.00;5.43;;;18.40;99.90;;;;;;5012852;28;20503;-72
2021/09/25 09:46:13;;;;;;;6.27;5.60;;;18.20;99.90;;;;;;5012853;28;20505;-69
2021/09/25 09:48:39;;;;;;;6.43;4.93;;;18.40;99.90;;;;;;5012573;28;20165;-70
2021/09/25 09:51:05;;;;;;;7.73;6.90;;;18.60;99.90;;;;;;5012946;28;20440;-70
2021/09/25 09:53:41;;;;;;;6.83;6.23;;;18.10;99.90;;;;;;5012806;28;20553;-71
2021/09/25 09:56:24;;;;;;;7.73;6.80;;;18.20;99.90;;;;;;5012715;28;20188;-71
2021/09/25 09:59:01;;;;;;;7.00;6.30;;;18.20;99.90;;;;;;5013653;28;20491;-70
2021/09/25 10:01:28;;;;;;;7.30;6.10;;;18.10;99.90;;;;;;5014618;28;20420;-71
2021/09/25 10:03:54;;;;;;;6.83;6.13;;;18.30;99.90;;;;;;5013491;28;20750;-70
2021/09/25 10:06:20;;;;;;;6.43;5.77;;;18.40;99.90;;;;;;5013516;28;20598;-71
2021/09/25 10:08:46;;;;;;;6.70;6.10;;;18.50;99.90;;;;;;5013383;28;20165;-70
2021/09/25 10:11:12;;;;;;;7.30;6.40;;;18.30;99.90;;;;;;5013750;28;20416;-71
2021/09/25 10:13:41;;;;;;;7.20;6.50;;;18.30;99.90;;;;;;4996387;28;20405;-72
2021/09/25 10:16:08;;;;;;;7.27;6.13;;;18.30;99.90;;;;;;5012983;28;20636;-71
2021/09/25 10:18:35;;;;;;;8.27;7.47;;;18.40;99.90;;;;;;4995384;28;20446;-70
2021/09/25 10:21:03;;;;;;;8.27;7.47;;;18.20;99.90;;;;;;5013329;28;20485;-69
2021/09/25 10:23:32;;;;;;;11.93;9.43;;;18.20;99.90;;;;;;5012472;28;20683;-69
2021/09/25 10:25:58;;;;;;;10.30;8.23;;;18.20;99.90;;;;;;5015355;28;20444;-71
2021/09/25 10:28:27;;;;;;;10.97;8.03;;;18.30;99.90;;;;;;5016753;28;20475;-70
2021/09/25 10:30:53;;;;;;;7.70;6.83;;;18.30;99.90;;;;;;5016809;28;20183;-70
2021/09/25 10:33:19;;;;;;;7.00;6.40;;;18.30;99.90;;;;;;5016732;28;20420;-70
2021/09/25 10:35:45;;;;;;;8.77;6.73;;;18.70;99.90;;;;;;5016023;28;20194;-70
2021/09/25 10:38:10;;;;;;;7.77;6.97;;;19.00;99.90;;;;;;5016147;28;20261;-71
2021/09/25 10:40:42;;;;;;;7.20;6.50;;;19.40;99.90;;;;;;5015876;28;20965;-72
2021/09/25 10:43:23;;;;;;;6.53;6.03;;;19.70;99.90;;;;;;5015727;28;20182;-72
2021/09/25 10:45:51;;;;;;;6.03;5.47;;;19.60;99.90;;;;;;5015755;28;20492;-72
2021/09/25 10:48:19;;;;;;;6.23;5.70;;;19.70;99.90;;;;;;5016053;28;20466;-71
2021/09/25 10:50:55;;;;;;;6.30;5.30;;;19.80;99.90;;;;;;5015637;28;20423;-72
2021/09/25 10:53:26;;;;;;;5.30;4.83;;;20.10;99.90;;;;;;5015248;28;20420;-70
2021/09/25 10:55:54;;;;;;;5.93;5.43;;;20.00;99.90;;;;;;5015436;28;20530;-72
2021/09/25 10:58:28;;;;;;;5.60;4.33;;;20.10;99.90;;;;;;5015190;28;20444;-71
2021/09/25 11:01:14;;;;;;;6.83;6.13;;;20.00;99.90;;;;;;5015509;28;20458;-72
2021/09/25 11:03:58;;;;;;;5.50;5.00;;;19.90;99.90;;;;;;5014954;28;20411;-72
2021/09/25 11:06:38;;;;;;;4.97;4.50;;;20.00;99.90;;;;;;5014995;28;20429;-72
2021/09/25 11:09:14;;;;;;;4.43;4.03;;;20.40;99.90;;;;;;5013836;28;20485;-72
2021/09/25 11:11:46;;;;;;;5.27;4.83;;;20.30;99.90;;;;;;5014991;28;20413;-72
2021/09/25 11:14:15;;;;;;;5.90;5.40;;;20.40;99.90;;;;;;5014938;28;20488;-71
2021/09/25 11:16:56;;;;;;;5.83;4.57;;;20.10;99.90;;;;;;5015065;28;20470;-72
2021/09/25 11:19:21;;;;;;;4.87;4.47;;;19.90;99.90;;;;;;5015345;28;20539;-72
2021/09/25 11:22:20;;;;;;;5.83;4.23;;;20.20;99.90;;;;;;5015027;28;20819;-71
2021/09/25 11:24:51;;;;;;;3.80;3.50;;;20.10;99.90;;;;;;5014697;28;20187;-70
2021/09/25 11:27:20;;;;;;;5.40;4.60;;;20.00;99.90;;;;;;5014663;28;20759;-72
2021/09/25 11:30:02;;;;;;;3.47;3.17;;;20.50;99.90;;;;;;5014883;28;20577;-71
2021/09/25 11:32:30;;;;;;;5.27;4.07;;;20.80;99.90;;;;;;5014617;28;20401;-72
2021/09/25 11:34:57;;;;;;;4.20;3.80;;;20.60;99.90;;;;;;5014539;28;20463;-73
2021/09/25 11:37:24;;;;;;;4.50;4.10;;;20.50;99.90;;;;;;5014653;28;20413;-72
2021/09/25 11:39:50;;;;;;;4.33;3.70;;;20.40;99.90;;;;;;5014504;28;20460;-71
2021/09/25 11:42:28;;;;;;;4.30;4.00;;;20.30;99.90;;;;;;5013161;28;20406;-71
2021/09/25 11:45:04;;;;;;;3.43;3.23;;;20.40;99.90;;;;;;5014725;28;20470;-73
2021/09/25 11:47:41;;;;;;;4.60;4.10;;;20.60;99.90;;;;;;5014510;28;20495;-71
2021/09/25 11:50:20;;;;;;;3.67;3.43;;;20.60;99.90;;;;;;5014489;28;20402;-72
2021/09/25 11:52:50;;;;;;;3.83;3.50;;;20.40;99.90;;;;;;5014221;28;20445;-72
2021/09/25 11:55:17;;;;;;;3.93;3.63;;;20.50;99.90;;;;;;5014085;28;20486;-71
2021/09/25 11:57:51;;;;;;;3.53;3.23;;;20.50;99.90;;;;;;5014357;28;20998;-71
2021/09/25 12:00:28;;;;;;;4.23;3.83;;;20.60;99.90;;;;;;5014373;28;20459;-72
2021/09/25 12:02:55;;;;;;;3.57;3.27;;;20.50;99.90;;;;;;5014258;28;20390;-71
2021/09/25 12:05:27;;;;;;;3.40;3.10;;;20.50;99.90;;;;;;5014284;28;20510;-72
2021/09/25 12:07:55;;;;;;;4.60;3.00;;;20.90;99.90;;;;;;5014547;28;20405;-74
2021/09/25 12:10:23;;;;;;;4.17;3.27;;;20.90;99.90;;;;;;5015425;28;20829;-72
2021/09/25 12:13:10;;;;;;;3.60;3.30;;;20.70;99.90;;;;;;4996741;28;20421;-72
2021/09/25 12:15:38;;;;;;;3.40;3.10;;;20.30;99.90;;;;;;5013899;28;20436;-72
2021/09/25 12:18:15;;;;;;;3.83;3.57;;;20.30;99.90;;;;;;5012768;28;20762;-72
2021/09/25 12:20:55;;;;;;;4.70;3.20;;;20.30;99.90;;;;;;5014071;28;20552;-71
2021/09/25 12:23:29;;;;;;;4.40;2.87;;;20.60;99.90;;;;;;5012582;28;20880;-71
2021/09/25 12:25:55;;;;;;;3.07;2.87;;;21.00;99.90;;;;;;5013937;28;20428;-71
2021/09/25 12:28:33;;;;;;;3.90;3.50;;;21.20;99.90;;;;;;5013806;28;20452;-70
2021/09/25 12:31:08;;;;;;;3.20;3.00;;;21.00;99.90;;;;;;5014062;28;20411;-72
2021/09/25 12:33:35;;;;;;;3.53;3.23;;;21.00;99.90;;;;;;5013621;28;20406;-72
2021/09/25 12:36:09;;;;;;;4.70;4.30;;;21.20;99.90;;;;;;5013447;28;20429;-72
2021/09/25 12:38:46;;;;;;;3.40;3.20;;;21.10;99.90;;;;;;5013838;28;20416;-72
2021/09/25 12:41:24;;;;;;;3.53;3.30;;;20.50;99.90;;;;;;5013393;28;20455;-73
2021/09/25 12:43:55;;;;;;;3.20;3.00;;;20.50;99.90;;;;;;5013418;28;20457;-72
2021/09/25 12:46:20;;;;;;;2.80;2.60;;;20.60;99.90;;;;;;5013365;28;20791;-72